createdAt,value
2017-06-18T00:00:59.006Z,71.80
2017-06-18T00:03:25.894Z,71.90
2017-06-18T00:05:52.829Z,72.00
2017-06-18T00:08:19.718Z,71.90
2017-06-18T00:10:46.605Z,72.00
2017-06-18T00:13:13.525Z,71.90
2017-06-18T00:15:40.845Z,72.00
2017-06-18T00:18:07.811Z,72.00
2017-06-18T00:20:35.170Z,72.10
2017-06-18T00:23:02.455Z,72.20
2017-06-18T00:25:29.465Z,72.20
2017-06-18T00:27:56.350Z,72.10
2017-06-18T00:30:24.280Z,72.30
2017-06-18T00:32:51.237Z,72.30
2017-06-18T00:35:18.601Z,72.10
2017-06-18T00:37:45.905Z,72.00
2017-06-18T00:40:12.801Z,71.90
2017-06-18T00:42:40.241Z,71.90
2017-06-18T00:45:07.129Z,71.90
2017-06-18T00:47:34.033Z,71.90
2017-06-18T00:50:01.394Z,71.70
2017-06-18T00:52:28.682Z,72.00
2017-06-18T00:54:55.569Z,72.00
2017-06-18T00:57:22.533Z,71.90
2017-06-18T00:59:49.481Z,71.80
2017-06-18T01:02:16.429Z,71.60
2017-06-18T01:04:43.373Z,71.70
2017-06-18T01:07:10.325Z,72.10
2017-06-18T01:09:37.268Z,72.10
2017-06-18T01:12:04.215Z,72.20
2017-06-18T01:14:31.145Z,72.30
2017-06-18T01:16:58.105Z,72.50
2017-06-18T01:19:24.993Z,72.40
2017-06-18T01:21:51.914Z,72.50
2017-06-18T01:24:19.214Z,72.70
2017-06-18T01:26:46.201Z,72.70
2017-06-18T01:29:13.090Z,72.60
2017-06-18T01:31:40.010Z,72.60
2017-06-18T01:34:07.346Z,72.50
2017-06-18T01:36:34.231Z,72.50
2017-06-18T01:39:01.114Z,72.60
2017-06-18T01:41:28.041Z,72.60
2017-06-18T01:43:54.952Z,72.80
2017-06-18T01:46:21.849Z,72.90
2017-06-18T01:48:48.765Z,73.00
2017-06-18T01:51:15.653Z,73.00
2017-06-18T01:53:42.574Z,72.90
2017-06-18T01:56:09.574Z,72.90
2017-06-18T01:58:37.013Z,72.70
2017-06-18T02:01:03.973Z,72.70
2017-06-18T02:03:31.318Z,73.20
2017-06-18T02:05:58.285Z,73.10
2017-06-18T02:08:25.616Z,73.00
2017-06-18T02:10:52.577Z,73.00
2017-06-18T02:13:19.497Z,73.30
2017-06-18T02:15:46.457Z,73.90
2017-06-18T02:18:13.390Z,73.70
2017-06-18T02:20:40.277Z,73.50
2017-06-18T02:23:07.194Z,73.30
2017-06-18T02:25:34.142Z,73.10
2017-06-18T02:28:01.034Z,73.00
2017-06-18T02:30:27.967Z,72.90
2017-06-18T02:32:54.878Z,72.60
2017-06-18T02:35:21.774Z,72.50
2017-06-18T02:37:48.773Z,72.70
2017-06-18T02:40:15.663Z,72.50
2017-06-18T02:42:42.562Z,72.90
2017-06-18T02:45:09.496Z,73.30
2017-06-18T02:47:36.381Z,73.50
2017-06-18T02:50:03.298Z,73.00
2017-06-18T02:52:30.241Z,73.30
2017-06-18T02:54:57.137Z,73.40
2017-06-18T02:57:24.030Z,73.40
2017-06-18T02:59:50.982Z,73.30
2017-06-18T03:02:17.933Z,73.70
2017-06-18T03:04:44.825Z,73.90
2017-06-18T03:07:11.789Z,73.90
2017-06-18T03:09:38.674Z,73.90
2017-06-18T03:12:05.562Z,73.70
2017-06-18T03:14:32.526Z,73.50
2017-06-18T03:16:59.481Z,73.30
2017-06-18T03:19:26.830Z,73.60
2017-06-18T03:21:54.186Z,73.10
2017-06-18T03:24:21.641Z,73.20
2017-06-18T03:26:48.595Z,73.20
2017-06-18T03:29:15.949Z,73.30
2017-06-18T03:31:43.238Z,73.50
2017-06-18T03:34:10.121Z,73.50
2017-06-18T03:36:37.034Z,73.50
2017-06-18T03:39:03.921Z,73.40
2017-06-18T03:41:30.923Z,73.20
2017-06-18T03:43:58.275Z,73.10
2017-06-18T03:46:25.222Z,73.10
2017-06-18T03:48:52.170Z,73.20
2017-06-18T03:51:19.057Z,73.20
2017-06-18T03:53:45.946Z,73.10
2017-06-18T03:56:12.862Z,73.10
2017-06-18T03:58:39.781Z,73.20
2017-06-18T04:01:06.694Z,73.30
2017-06-18T04:03:33.702Z,73.40
2017-06-18T04:06:01.038Z,73.40
2017-06-18T04:08:27.925Z,73.40
2017-06-18T04:10:54.825Z,73.50
2017-06-18T04:13:21.774Z,73.60
2017-06-18T04:15:48.730Z,73.70
2017-06-18T04:18:16.073Z,74.00
2017-06-18T04:20:43.032Z,74.00
2017-06-18T04:23:10.386Z,73.70
2017-06-18T04:25:37.666Z,74.10
2017-06-18T04:28:04.581Z,74.10
2017-06-18T04:30:31.905Z,74.80
2017-06-18T04:32:58.878Z,74.80
2017-06-18T04:35:25.826Z,75.00
2017-06-18T04:37:52.770Z,74.70
2017-06-18T04:40:19.661Z,74.50
2017-06-18T04:42:46.662Z,74.50
2017-06-18T04:45:13.614Z,74.40
2017-06-18T04:47:40.557Z,74.20
2017-06-18T04:50:07.501Z,74.40
2017-06-18T04:52:34.386Z,74.30
2017-06-18T04:55:01.313Z,74.40
2017-06-18T04:57:28.238Z,74.10
2017-06-18T04:59:55.189Z,74.20
2017-06-18T05:02:22.542Z,74.40
2017-06-18T05:04:49.490Z,74.40
2017-06-18T05:07:16.437Z,74.30
2017-06-18T05:09:43.382Z,74.30
2017-06-18T05:12:10.430Z,74.10
2017-06-18T05:14:37.377Z,73.90
2017-06-18T05:17:04.322Z,74.00
2017-06-18T05:19:31.277Z,73.90
2017-06-18T05:21:58.221Z,73.70
2017-06-18T05:24:25.173Z,73.50
2017-06-18T05:26:52.525Z,74.30
2017-06-18T05:29:19.473Z,74.30
2017-06-18T05:31:46.829Z,74.50
2017-06-18T05:34:13.773Z,74.50
2017-06-18T05:36:40.728Z,74.50
2017-06-18T05:39:08.077Z,73.60
2017-06-18T05:41:35.022Z,73.60
2017-06-18T05:44:02.077Z,73.80
2017-06-18T05:46:29.358Z,73.60
2017-06-18T05:48:56.246Z,73.60
2017-06-18T05:51:23.199Z,72.90
2017-06-18T05:53:50.092Z,72.90
2017-06-18T05:56:17.010Z,72.80
2017-06-18T05:58:43.930Z,72.80
2017-06-18T06:01:10.902Z,72.60
2017-06-18T06:03:37.845Z,72.60
2017-06-18T06:06:04.797Z,72.40
2017-06-18T06:08:31.741Z,72.20
2017-06-18T06:10:58.690Z,71.70
2017-06-18T06:13:26.042Z,71.30
2017-06-18T06:15:52.946Z,71.30
2017-06-18T06:18:19.826Z,71.40
2017-06-18T06:20:46.778Z,71.00
2017-06-18T06:23:13.726Z,70.90
2017-06-18T06:25:40.677Z,71.20
2017-06-18T06:28:07.658Z,72.50
2017-06-18T06:30:34.538Z,72.90
2017-06-18T06:33:01.426Z,73.30
2017-06-18T06:35:28.768Z,72.90
2017-06-18T06:37:55.713Z,72.90
2017-06-18T06:40:23.095Z,72.40
2017-06-18T06:42:49.977Z,72.40
2017-06-18T06:45:16.961Z,71.60
2017-06-18T06:47:43.918Z,71.80
2017-06-18T06:50:10.802Z,72.70
2017-06-18T06:52:37.687Z,72.50
2017-06-18T06:55:05.033Z,71.60
2017-06-18T06:57:32.381Z,71.40
2017-06-18T06:59:59.737Z,70.50
2017-06-18T07:02:26.682Z,70.50
2017-06-18T07:04:53.638Z,69.90
2017-06-18T07:07:20.527Z,69.30
2017-06-18T07:09:47.453Z,69.70
2017-06-18T07:12:14.365Z,69.20
2017-06-18T07:14:41.309Z,68.70
2017-06-18T07:17:08.258Z,69.00
2017-06-18T07:19:35.206Z,69.50
2017-06-18T07:22:02.156Z,69.60
2017-06-18T07:24:29.510Z,69.50
2017-06-18T07:26:56.793Z,69.10
2017-06-18T07:29:23.681Z,69.10
2017-06-18T07:31:50.653Z,69.30
2017-06-18T07:34:17.938Z,69.30
2017-06-18T07:36:44.870Z,69.30
2017-06-18T07:39:11.797Z,69.60
2017-06-18T07:41:38.745Z,69.20
2017-06-18T07:44:05.666Z,69.70
2017-06-18T07:46:32.637Z,69.90
2017-06-18T07:48:59.586Z,70.10
2017-06-18T07:51:26.470Z,70.30
2017-06-18T07:53:53.430Z,69.20
2017-06-18T07:56:20.317Z,69.10
2017-06-18T07:58:47.265Z,68.70
2017-06-18T08:01:14.220Z,69.10
2017-06-18T08:03:41.157Z,68.60
2017-06-18T08:06:08.102Z,67.40
2017-06-18T08:08:35.049Z,66.90
2017-06-18T08:11:01.977Z,66.70
2017-06-18T08:13:28.865Z,66.10
2017-06-18T08:15:55.796Z,65.70
2017-06-18T08:18:23.113Z,66.10
2017-06-18T08:20:50.003Z,66.10
2017-06-18T08:23:16.889Z,66.20
2017-06-18T08:25:43.880Z,65.80
2017-06-18T08:28:10.767Z,66.30
2017-06-18T08:30:37.665Z,66.70
2017-06-18T08:33:04.589Z,66.40
2017-06-18T08:35:31.566Z,66.10
2017-06-18T08:37:58.450Z,65.40
2017-06-18T08:40:25.645Z,64.60
2017-06-18T08:42:52.605Z,63.80
2017-06-18T08:45:19.553Z,63.90
2017-06-18T08:47:46.501Z,63.60
2017-06-18T08:50:13.444Z,64.00
2017-06-18T08:52:40.403Z,63.80
2017-06-18T08:55:07.342Z,63.50
2017-06-18T08:57:34.227Z,62.70
2017-06-18T09:00:01.190Z,63.50
2017-06-18T09:02:28.173Z,63.40
2017-06-18T09:04:55.126Z,63.80
2017-06-18T09:07:22.046Z,62.90
2017-06-18T09:09:49.013Z,62.20
2017-06-18T09:12:15.943Z,61.80
2017-06-18T09:14:42.953Z,61.80
2017-06-18T09:17:09.837Z,59.90
2017-06-18T09:19:36.798Z,60.10
2017-06-18T09:22:03.745Z,59.20
2017-06-18T09:25:14.657Z,59.80
2017-06-18T09:27:41.581Z,60.10
2017-06-18T09:30:08.945Z,60.90
2017-06-18T09:32:36.282Z,60.30
2017-06-18T09:35:03.167Z,60.30
2017-06-18T09:37:30.075Z,60.20
2017-06-18T09:39:57.066Z,59.60
2017-06-18T09:42:23.946Z,58.70
2017-06-18T09:44:50.833Z,58.10
2017-06-18T09:47:18.137Z,57.40
2017-06-18T09:49:45.110Z,57.40
2017-06-18T09:52:12.103Z,58.00
2017-06-18T09:54:39.014Z,57.60
2017-06-18T09:57:06.365Z,57.10
2017-06-18T09:59:33.722Z,56.40
2017-06-18T10:02:00.622Z,56.40
2017-06-18T10:04:27.529Z,55.80
2017-06-18T10:06:54.866Z,56.20
2017-06-18T10:09:21.926Z,56.20
2017-06-18T10:11:49.207Z,55.80
2017-06-18T10:14:16.218Z,55.80
2017-06-18T10:16:43.206Z,56.70
2017-06-18T10:19:10.205Z,56.20
2017-06-18T10:21:37.141Z,55.70
2017-06-18T10:24:04.101Z,55.20
2017-06-18T10:26:31.048Z,55.00
2017-06-18T10:28:58.001Z,55.30
2017-06-18T10:31:24.941Z,55.10
2017-06-18T10:33:51.890Z,55.00
2017-06-18T10:36:18.801Z,55.60
2017-06-18T10:38:45.689Z,57.10
2017-06-18T10:41:13.143Z,55.90
2017-06-18T10:43:40.086Z,55.90
2017-06-18T10:46:07.384Z,56.40
2017-06-18T10:48:34.298Z,56.40
2017-06-18T10:51:01.578Z,56.00
2017-06-18T10:53:28.537Z,56.00
2017-06-18T10:55:55.429Z,56.40
2017-06-18T10:58:22.377Z,56.00
2017-06-18T11:00:49.297Z,55.90
2017-06-18T11:03:16.269Z,55.90
2017-06-18T11:05:43.221Z,56.00
2017-06-18T11:08:10.161Z,55.80
2017-06-18T11:10:37.209Z,56.20
2017-06-18T11:13:04.153Z,56.70
2017-06-18T11:15:31.047Z,58.20
2017-06-18T11:17:58.051Z,58.30
2017-06-18T11:20:24.994Z,58.10
2017-06-18T11:22:51.873Z,58.60
2017-06-18T11:25:18.908Z,58.20
2017-06-18T11:27:46.186Z,59.00
2017-06-18T11:30:13.218Z,59.00
2017-06-18T11:32:40.137Z,59.80
2017-06-18T11:35:07.083Z,60.00
2017-06-18T11:37:34.046Z,60.60
2017-06-18T11:40:01.400Z,58.60
2017-06-18T11:42:28.678Z,57.90
2017-06-18T11:44:55.569Z,57.90
2017-06-18T11:47:22.549Z,58.50
2017-06-18T11:49:49.889Z,57.80
2017-06-18T11:52:16.938Z,57.70
2017-06-18T11:54:43.881Z,58.00
2017-06-18T11:57:10.831Z,58.00
2017-06-18T11:59:37.777Z,58.30
2017-06-18T12:02:04.662Z,58.90
2017-06-18T12:04:31.577Z,59.20
2017-06-18T12:06:58.940Z,59.10
2017-06-18T12:09:26.213Z,59.30
2017-06-18T12:11:53.222Z,59.30
2017-06-18T12:14:20.098Z,60.00
2017-06-18T12:16:47.115Z,60.10
2017-06-18T12:19:14.038Z,59.60
2017-06-18T12:21:40.933Z,59.20
2017-06-18T12:24:08.265Z,58.10
2017-06-18T12:26:35.193Z,58.20
2017-06-18T12:29:02.175Z,58.50
2017-06-18T12:31:29.517Z,58.60
2017-06-18T12:33:56.457Z,58.60
2017-06-18T12:36:23.342Z,58.00
2017-06-18T12:38:50.256Z,58.00
2017-06-18T12:41:17.622Z,57.70
2017-06-18T12:43:45.321Z,57.70
2017-06-18T12:46:12.220Z,57.70
2017-06-18T12:48:39.167Z,58.60
2017-06-18T12:51:06.106Z,58.10
2017-06-18T12:53:33.052Z,58.30
2017-06-18T12:55:59.997Z,58.30
2017-06-18T12:58:26.887Z,58.00
2017-06-18T13:00:53.793Z,57.70
2017-06-18T13:03:20.714Z,56.90
2017-06-18T13:05:47.686Z,56.60
2017-06-18T13:08:14.635Z,56.20
2017-06-18T13:10:41.681Z,57.10
2017-06-18T13:13:08.626Z,56.30
2017-06-18T13:15:35.525Z,56.90
2017-06-18T13:18:02.446Z,56.60
2017-06-18T13:20:29.366Z,56.60
2017-06-18T13:22:56.306Z,56.10
2017-06-18T13:25:23.261Z,55.90
2017-06-18T13:27:50.557Z,56.30
2017-06-18T13:30:17.438Z,56.30
2017-06-18T13:32:44.345Z,56.00
2017-06-18T13:35:11.225Z,56.90
2017-06-18T13:37:38.145Z,57.10
2017-06-18T13:40:05.034Z,56.40
2017-06-18T13:42:32.003Z,57.00
2017-06-18T13:44:59.330Z,56.30
2017-06-18T13:47:26.213Z,56.30
2017-06-18T13:49:53.173Z,55.90
2017-06-18T13:52:20.090Z,55.80
2017-06-18T13:54:47.438Z,55.40
2017-06-18T13:57:14.731Z,56.00
2017-06-18T13:59:41.737Z,56.00
2017-06-18T14:02:08.687Z,55.60
2017-06-18T14:04:35.630Z,55.80
2017-06-18T14:07:02.587Z,54.70
2017-06-18T14:09:29.933Z,53.70
2017-06-18T14:11:57.290Z,53.80
2017-06-18T14:14:24.242Z,53.80
2017-06-18T14:16:51.653Z,53.40
2017-06-18T14:19:18.637Z,53.40
2017-06-18T14:21:45.565Z,54.10
2017-06-18T14:24:12.443Z,53.80
2017-06-18T14:26:39.370Z,53.50
2017-06-18T14:29:06.626Z,53.80
2017-06-18T14:31:34.389Z,54.20
2017-06-18T14:34:01.277Z,53.50
2017-06-18T14:36:28.281Z,53.40
2017-06-18T14:38:55.167Z,53.70
2017-06-18T14:41:22.050Z,53.20
2017-06-18T14:43:49.448Z,53.40
2017-06-18T14:46:16.734Z,53.20
2017-06-18T14:48:43.632Z,53.20
2017-06-18T14:51:10.542Z,53.00
2017-06-18T14:53:37.425Z,52.70
2017-06-18T14:56:04.373Z,51.90
2017-06-18T14:58:31.317Z,52.00
2017-06-18T15:00:58.265Z,52.40
2017-06-18T15:03:25.190Z,52.90
2017-06-18T15:05:52.149Z,53.10
2017-06-18T15:08:19.073Z,52.80
2017-06-18T15:10:45.958Z,52.00
2017-06-18T15:13:13.297Z,52.00
2017-06-18T15:15:40.290Z,52.00
2017-06-18T15:18:07.174Z,52.70
2017-06-18T15:20:34.146Z,52.20
2017-06-18T15:23:01.086Z,52.60
2017-06-18T15:25:28.034Z,52.60
2017-06-18T15:27:54.982Z,51.70
2017-06-18T15:30:21.921Z,51.60
2017-06-18T15:32:48.881Z,51.50
2017-06-18T15:35:16.213Z,51.20
2017-06-18T15:37:43.100Z,51.20
2017-06-18T15:40:10.129Z,51.80
2017-06-18T15:42:37.583Z,51.20
2017-06-18T15:45:04.532Z,51.30
2017-06-18T15:47:31.469Z,50.80
2017-06-18T15:49:58.411Z,51.10
2017-06-18T15:52:25.379Z,50.80
2017-06-18T15:54:52.662Z,50.90
2017-06-18T15:57:19.669Z,50.90
2017-06-18T15:59:46.622Z,50.30
2017-06-18T16:02:13.978Z,49.70
2017-06-18T16:04:41.331Z,50.80
2017-06-18T16:07:08.206Z,50.80
2017-06-18T16:09:35.090Z,51.60
2017-06-18T16:12:02.061Z,51.80
2017-06-18T16:14:28.937Z,51.50
2017-06-18T16:16:55.837Z,51.40
2017-06-18T16:19:22.762Z,51.20
2017-06-18T16:21:49.637Z,52.00
2017-06-18T16:24:16.977Z,51.60
2017-06-18T16:26:43.925Z,51.60
2017-06-18T16:29:10.870Z,50.80
2017-06-18T16:31:37.753Z,50.30
2017-06-18T16:34:04.673Z,49.10
2017-06-18T16:36:32.022Z,47.40
2017-06-18T16:38:58.909Z,47.40
2017-06-18T16:41:25.833Z,46.50
2017-06-18T16:43:53.173Z,43.70
2017-06-18T16:46:20.110Z,43.70
2017-06-18T16:48:47.184Z,43.40
2017-06-18T16:51:14.074Z,42.50
2017-06-18T16:53:41.057Z,42.80
2017-06-18T16:56:08.001Z,42.90
2017-06-18T16:58:34.965Z,43.20
2017-06-18T17:01:02.301Z,43.10
2017-06-18T17:03:29.246Z,43.10
2017-06-18T17:05:56.142Z,42.90
2017-06-18T17:08:23.085Z,43.00
2017-06-18T17:10:49.971Z,42.30
2017-06-18T17:13:16.946Z,42.20
2017-06-18T17:15:44.296Z,42.10
2017-06-18T17:18:11.649Z,42.60
2017-06-18T17:20:38.943Z,43.10
2017-06-18T17:23:05.862Z,43.10
2017-06-18T17:25:33.205Z,43.30
2017-06-18T17:28:00.101Z,43.30
2017-06-18T17:30:27.038Z,43.30
2017-06-18T17:32:54.067Z,42.70
2017-06-18T17:35:20.966Z,43.80
2017-06-18T17:37:47.931Z,45.50
2017-06-18T17:40:14.838Z,45.60
2017-06-18T17:42:42.238Z,44.50
2017-06-18T17:45:09.182Z,44.50
2017-06-18T17:47:36.276Z,43.80
2017-06-18T17:50:03.177Z,43.50
2017-06-18T17:52:30.097Z,43.10
2017-06-18T17:54:56.992Z,43.90
2017-06-18T17:57:23.917Z,45.20
2017-06-18T17:59:50.965Z,46.90
2017-06-18T18:02:17.910Z,47.80
2017-06-18T18:04:44.817Z,48.40
2017-06-18T18:07:11.826Z,49.20
2017-06-18T18:09:39.145Z,51.30
2017-06-18T18:12:06.045Z,51.30
2017-06-18T18:14:32.965Z,51.50
2017-06-18T18:17:00.301Z,51.70
2017-06-18T18:19:27.250Z,51.70
2017-06-18T18:21:54.173Z,52.00
2017-06-18T18:24:21.153Z,52.30
2017-06-18T18:26:48.504Z,52.10
2017-06-18T18:29:15.422Z,52.00
2017-06-18T18:31:42.397Z,53.00
2017-06-18T18:34:09.342Z,53.40
2017-06-18T18:36:36.286Z,53.60
2017-06-18T18:39:03.177Z,54.00
2017-06-18T18:41:30.053Z,54.10
2017-06-18T18:43:56.991Z,54.70
2017-06-18T18:46:23.969Z,54.70
2017-06-18T18:48:50.850Z,54.90
2017-06-18T18:51:17.773Z,55.30
2017-06-18T18:53:45.050Z,55.90
2017-06-18T18:56:11.959Z,55.90
2017-06-18T18:58:39.014Z,55.80
2017-06-18T19:01:06.367Z,56.00
2017-06-18T19:03:33.249Z,56.00
2017-06-18T19:06:00.194Z,56.40
2017-06-18T19:08:27.073Z,56.70
2017-06-18T19:10:53.958Z,57.10
2017-06-18T19:13:21.309Z,57.10
2017-06-18T19:15:48.659Z,57.20
2017-06-18T19:18:15.648Z,57.20
2017-06-18T19:20:42.761Z,57.20
2017-06-18T19:23:09.702Z,57.30
2017-06-18T19:25:36.606Z,57.30
2017-06-18T19:28:03.565Z,57.50
2017-06-18T19:30:30.537Z,57.50
2017-06-18T19:32:57.489Z,57.80
2017-06-18T19:35:24.445Z,57.90
2017-06-18T19:37:51.789Z,57.90
2017-06-18T19:40:18.718Z,57.90
2017-06-18T19:42:45.681Z,57.90
2017-06-18T19:45:12.647Z,57.90
2017-06-18T19:47:39.977Z,58.30
2017-06-18T19:50:06.940Z,58.30
2017-06-18T19:52:34.286Z,58.50
2017-06-18T19:55:01.230Z,58.50
2017-06-18T19:57:28.185Z,58.50
2017-06-18T19:59:55.540Z,58.90
2017-06-18T20:02:22.501Z,58.90
2017-06-18T20:04:49.773Z,59.50
2017-06-18T20:07:16.650Z,59.50
2017-06-18T20:09:43.613Z,59.90
2017-06-18T20:12:10.497Z,60.00
2017-06-18T20:14:37.394Z,60.30
2017-06-18T20:17:04.323Z,60.40
2017-06-18T20:19:31.205Z,60.50
2017-06-18T20:21:58.662Z,60.70
2017-06-18T20:24:26.009Z,60.70
2017-06-18T20:26:52.966Z,60.70
2017-06-18T20:29:20.339Z,61.30
2017-06-18T20:31:47.269Z,61.30
2017-06-18T20:34:14.960Z,62.00
2017-06-18T20:36:41.857Z,62.00
2017-06-18T20:39:08.810Z,62.00
2017-06-18T20:41:35.690Z,62.00
2017-06-18T20:44:02.812Z,62.20
2017-06-18T20:46:30.128Z,62.80
2017-06-18T20:48:57.006Z,62.80
2017-06-18T20:51:23.890Z,63.10
2017-06-18T20:53:50.821Z,63.20
2017-06-18T20:56:17.708Z,63.20
2017-06-18T20:58:44.689Z,63.20
2017-06-18T21:01:11.736Z,63.10
2017-06-18T21:03:38.626Z,63.20
2017-06-18T21:06:05.505Z,63.30
2017-06-18T21:08:32.479Z,63.20
2017-06-18T21:10:59.425Z,63.20
2017-06-18T21:13:26.781Z,62.90
2017-06-18T21:15:53.872Z,62.90
2017-06-18T21:18:20.753Z,62.80
2017-06-18T21:20:47.635Z,62.80
2017-06-18T21:23:14.962Z,62.90
2017-06-18T21:25:41.842Z,62.90
2017-06-18T21:28:08.733Z,63.10
2017-06-18T21:30:35.675Z,63.00
2017-06-18T21:33:02.565Z,63.10
2017-06-18T21:35:29.917Z,63.20
2017-06-18T21:37:57.369Z,63.30
2017-06-18T21:40:24.725Z,63.20
2017-06-18T21:42:52.003Z,63.20
2017-06-18T21:45:18.925Z,63.20
2017-06-18T21:47:46.278Z,63.10
2017-06-18T21:50:13.231Z,63.10
2017-06-18T21:52:40.859Z,63.40
2017-06-18T21:55:07.837Z,63.40
2017-06-18T21:57:34.726Z,63.70
2017-06-18T22:00:01.678Z,63.50
2017-06-18T22:02:28.561Z,63.40
2017-06-18T22:04:55.449Z,63.10
2017-06-18T22:07:22.456Z,63.50
2017-06-18T22:09:49.409Z,63.80
2017-06-18T22:12:16.306Z,64.10
2017-06-18T22:14:43.233Z,64.30
2017-06-18T22:17:10.122Z,64.70
2017-06-18T22:19:37.095Z,64.90
2017-06-18T22:22:04.156Z,65.30
2017-06-18T22:24:31.054Z,65.10
2017-06-18T22:26:58.032Z,65.10
2017-06-18T22:29:24.958Z,65.50
2017-06-18T22:31:51.939Z,65.70
2017-06-18T22:34:19.217Z,65.90
2017-06-18T22:36:46.150Z,65.90
2017-06-18T22:39:13.481Z,66.20
2017-06-18T22:41:40.446Z,66.20
2017-06-18T22:44:07.790Z,66.60
2017-06-18T22:46:34.692Z,66.60
2017-06-18T22:49:01.585Z,66.30
2017-06-18T22:51:28.905Z,66.30
2017-06-18T22:53:55.887Z,66.30
2017-06-18T22:56:23.210Z,66.00
2017-06-18T22:58:50.102Z,66.00
2017-06-18T23:01:17.441Z,66.30
2017-06-18T23:03:44.793Z,66.30
2017-06-18T23:06:12.089Z,66.20
2017-06-18T23:08:38.977Z,66.20
2017-06-18T23:11:05.941Z,66.40
2017-06-18T23:13:32.841Z,66.50
2017-06-18T23:15:59.725Z,66.70
2017-06-18T23:18:26.673Z,66.90
2017-06-18T23:20:53.621Z,66.80
2017-06-18T23:23:20.569Z,66.60
2017-06-18T23:25:47.498Z,66.70
2017-06-18T23:28:14.376Z,66.60
2017-06-18T23:30:41.757Z,66.50
2017-06-18T23:33:08.757Z,66.50
2017-06-18T23:35:35.648Z,66.80
2017-06-18T23:38:02.526Z,67.00
2017-06-18T23:40:29.513Z,66.80
2017-06-18T23:42:56.853Z,67.30
2017-06-18T23:45:23.797Z,67.30
2017-06-18T23:47:50.858Z,67.20
2017-06-18T23:50:18.207Z,67.50
2017-06-18T23:52:45.114Z,67.50
2017-06-18T23:55:12.054Z,67.20
2017-06-18T23:57:39.044Z,67.50
